Time;durP1;ratioP1;P1;durP2;ratioP2;P2;SDS_P1;SDS_P2;PMS_P1;PMS_P2;Temp;Humidity;BMP_temperature;BMP_pressure;BME280_temperature;BME280_humidity;BME280_pressure;Samples;Min_cycle;Max_cycle;Signal;HPM_P1;HPM_P2
2022/12/27 00:02:13;;;;;;;4.67;2.23;;;5.90;98.60;;;;;;4990924;28;20472;-76
2022/12/27 00:04:40;;;;;;;12.23;3.60;;;5.80;98.70;;;;;;4988349;28;20497;-77
2022/12/27 00:07:07;;;;;;;6.20;2.73;;;5.70;98.80;;;;;;4992757;28;20455;-75
2022/12/27 00:09:34;;;;;;;6.10;2.57;;;5.70;99.00;;;;;;4992624;28;20480;-76
2022/12/27 00:12:01;;;;;;;9.60;2.67;;;5.70;99.10;;;;;;4980140;28;20466;-76
2022/12/27 00:14:28;;;;;;;11.17;2.40;;;5.70;99.20;;;;;;4982627;28;20496;-77
2022/12/27 00:16:54;;;;;;;15.30;2.50;;;5.70;99.40;;;;;;4994282;28;20452;-77
2022/12/27 00:19:23;;;;;;;8.67;2.03;;;5.60;99.50;;;;;;4994192;28;20433;-77
2022/12/27 00:21:50;;;;;;;6.10;3.07;;;5.70;99.70;;;;;;4994222;28;20452;-77
2022/12/27 00:24:18;;;;;;;10.23;3.17;;;5.70;99.50;;;;;;4994145;28;20473;-77
2022/12/27 00:26:45;;;;;;;6.93;2.40;;;5.70;99.50;;;;;;4994153;28;20436;-77
2022/12/27 00:29:11;;;;;;;4.10;2.63;;;5.60;99.70;;;;;;4996536;28;20494;-78
2022/12/27 00:31:38;;;;;;;9.00;2.70;;;5.60;99.90;;;;;;5004430;28;20463;-78
2022/12/27 00:34:08;;;;;;;4.97;2.87;;;5.60;99.90;;;;;;5002002;28;20439;-78
2022/12/27 00:36:36;;;;;;;7.60;3.13;;;5.60;99.90;;;;;;4997744;28;20827;-78
2022/12/27 00:39:03;;;;;;;9.27;3.00;;;5.70;99.90;;;;;;4997236;28;20460;-78
2022/12/27 00:41:31;;;;;;;9.63;4.93;;;5.70;99.90;;;;;;4998428;28;20820;-78
2022/12/27 00:43:58;;;;;;;7.10;2.70;;;5.80;99.90;;;;;;4998505;28;20533;-78
2022/12/27 00:46:25;;;;;;;4.40;2.30;;;5.80;99.90;;;;;;4998973;28;20468;-77
2022/12/27 00:48:52;;;;;;;7.23;2.27;;;5.80;99.90;;;;;;4998477;28;20472;-78
2022/12/27 00:51:21;;;;;;;8.53;2.30;;;5.80;99.90;;;;;;4998641;28;20464;-78
2022/12/27 00:53:50;;;;;;;6.00;2.43;;;5.90;99.90;;;;;;5000269;28;20463;-78
2022/12/27 00:56:18;;;;;;;7.47;2.43;;;5.90;99.90;;;;;;4998337;28;20949;-77
2022/12/27 00:58:45;;;;;;;5.13;2.93;;;5.90;99.90;;;;;;4998209;28;20447;-79
2022/12/27 01:01:14;;;;;;;7.67;2.80;;;5.80;99.90;;;;;;4998035;28;20469;-78
2022/12/27 01:03:41;;;;;;;8.40;3.30;;;5.80;99.90;;;;;;4997572;28;20485;-78
2022/12/27 01:06:09;;;;;;;3.60;2.53;;;5.80;99.90;;;;;;4997470;28;21008;-78
2022/12/27 01:08:36;;;;;;;3.67;2.07;;;5.90;99.90;;;;;;4997257;28;20500;-78
2022/12/27 01:11:05;;;;;;;11.00;3.43;;;5.90;99.90;;;;;;4997153;28;20453;-79
2022/12/27 01:13:32;;;;;;;5.27;2.50;;;5.80;99.90;;;;;;4997099;28;20465;-77
2022/12/27 01:15:59;;;;;;;5.97;2.67;;;5.70;99.90;;;;;;4980502;28;20488;-78
2022/12/27 01:18:26;;;;;;;6.13;2.10;;;5.70;99.90;;;;;;4977753;28;20465;-77
2022/12/27 01:20:53;;;;;;;6.97;3.90;;;5.70;99.90;;;;;;4986555;28;20461;-78
2022/12/27 01:23:19;;;;;;;5.93;2.10;;;5.70;99.90;;;;;;4997069;28;20462;-77
2022/12/27 01:25:46;;;;;;;5.33;2.60;;;5.70;99.90;;;;;;4996794;28;20481;-77
2022/12/27 01:28:16;;;;;;;8.20;2.33;;;5.70;99.90;;;;;;4980789;28;20449;-78
2022/12/27 01:30:43;;;;;;;4.83;2.07;;;5.70;99.90;;;;;;4978082;28;20473;-77
2022/12/27 01:33:10;;;;;;;11.80;2.33;;;5.70;99.90;;;;;;4977490;28;20831;-78
2022/12/27 01:35:37;;;;;;;6.53;2.13;;;5.60;99.90;;;;;;4977557;28;20489;-78
2022/12/27 01:38:03;;;;;;;10.53;2.50;;;5.60;99.90;;;;;;4977645;28;20458;-78
2022/12/27 01:40:30;;;;;;;6.40;2.00;;;5.60;99.90;;;;;;4977366;28;20459;-78
2022/12/27 01:42:56;;;;;;;6.90;1.90;;;5.60;99.90;;;;;;4977226;28;20457;-78
2022/12/27 01:45:25;;;;;;;7.60;1.90;;;5.60;99.90;;;;;;4977291;28;20479;-78
2022/12/27 01:47:59;;;;;;;6.40;2.03;;;5.70;99.90;;;;;;4982719;28;20219;-78
2022/12/27 01:50:31;;;;;;;10.23;3.00;;;5.70;99.90;;;;;;4980907;28;20485;-78
2022/12/27 01:53:04;;;;;;;7.37;2.43;;;5.70;99.90;;;;;;4976819;28;20450;-77
2022/12/27 01:55:36;;;;;;;5.20;2.00;;;5.70;99.90;;;;;;4980277;28;20482;-78
2022/12/27 01:58:09;;;;;;;4.30;1.77;;;5.70;99.90;;;;;;4996710;28;20459;-77
2022/12/27 02:00:37;;;;;;;11.40;2.30;;;5.70;99.90;;;;;;4996355;28;20925;-78
2022/12/27 02:03:05;;;;;;;4.80;2.17;;;5.70;99.90;;;;;;4996691;28;20457;-78
2022/12/27 02:05:32;;;;;;;7.20;2.20;;;5.80;99.90;;;;;;4996706;28;20493;-78
2022/12/27 02:08:23;;;;;;;9.50;2.60;;;5.70;99.90;;;;;;4996163;28;20445;-78
2022/12/27 02:10:50;;;;;;;6.80;3.90;;;5.70;99.90;;;;;;4996362;28;20837;-78
2022/12/27 02:13:19;;;;;;;5.80;2.43;;;5.70;99.90;;;;;;4996018;28;20451;-78
2022/12/27 02:15:47;;;;;;;5.20;2.27;;;5.70;99.90;;;;;;4996020;28;20476;-78
2022/12/27 02:18:14;;;;;;;2.97;1.97;;;5.70;99.90;;;;;;4996129;28;20453;-78
2022/12/27 02:20:58;;;;;;;7.07;2.13;;;5.60;99.90;;;;;;4995981;28;20417;-78
2022/12/27 02:24:05;;;;;;;5.80;2.30;;;5.70;99.90;;;;;;4995996;28;20425;-78
2022/12/27 02:26:52;;;;;;;3.80;2.10;;;5.70;99.90;;;;;;4981390;28;20503;-77
2022/12/27 02:29:43;;;;;;;6.37;2.70;;;5.70;99.90;;;;;;5007403;28;20478;-77
2022/12/27 02:32:18;;;;;;;5.13;2.63;;;5.70;99.90;;;;;;4997684;28;20488;-77
2022/12/27 02:34:53;;;;;;;4.80;2.20;;;5.70;99.90;;;;;;4993440;28;20482;-77
2022/12/27 02:37:23;;;;;;;8.10;2.40;;;5.70;99.90;;;;;;4995639;28;20441;-77
2022/12/27 02:39:51;;;;;;;10.33;2.90;;;5.70;99.90;;;;;;4977140;28;20454;-78
2022/12/27 02:53:51;;;;;;;16.20;2.20;;;5.70;99.90;;;;;;4976638;28;20473;-78
2022/12/27 02:59:29;;;;;;;9.13;1.93;;;5.60;99.90;;;;;;4975675;28;20408;-76
2022/12/27 03:05:09;;;;;;;9.23;2.40;;;5.60;99.90;;;;;;4965622;28;20566;-78
2022/12/27 03:07:40;;;;;;;5.20;2.40;;;5.70;99.90;;;;;;4975839;28;20803;-78
2022/12/27 03:16:18;;;;;;;5.80;2.07;;;5.70;99.90;;;;;;4994778;28;20538;-77
2022/12/27 03:18:57;;;;;;;9.03;2.40;;;5.70;99.90;;;;;;4996207;28;20448;-77
2022/12/27 03:27:03;;;;;;;9.10;1.93;;;5.70;99.90;;;;;;4994911;28;20397;-77
2022/12/27 03:35:08;;;;;;;3.83;2.40;;;5.80;99.90;;;;;;4994487;28;20471;-76
2022/12/27 03:40:33;;;;;;;7.47;2.30;;;5.80;99.90;;;;;;4994591;28;20428;-76
2022/12/27 03:43:10;;;;;;;8.13;2.40;;;5.80;99.90;;;;;;4994534;28;20479;-76
2022/12/27 03:48:46;;;;;;;6.67;2.73;;;5.80;99.90;;;;;;4974769;28;20407;-76
2022/12/27 03:51:16;;;;;;;4.13;2.23;;;5.80;99.90;;;;;;4979514;28;20848;-75
2022/12/27 03:53:45;;;;;;;4.77;2.23;;;5.70;99.90;;;;;;4994641;28;20440;-76
2022/12/27 03:56:12;;;;;;;5.13;2.40;;;5.70;99.90;;;;;;4994302;28;20824;-76
2022/12/27 03:58:39;;;;;;;5.03;2.23;;;5.80;99.90;;;;;;4993578;28;20463;-76
2022/12/27 04:01:06;;;;;;;8.27;2.57;;;5.80;99.90;;;;;;4974756;28;20454;-75
2022/12/27 04:03:32;;;;;;;6.77;1.70;;;5.80;99.90;;;;;;4974847;28;20458;-76
2022/12/27 04:05:59;;;;;;;2.77;1.83;;;5.80;99.90;;;;;;4974902;28;20496;-77
2022/12/27 04:35:52;;;;;;;8.00;2.60;;;5.90;99.90;;;;;;4978203;28;20870;-76
2022/12/27 04:38:19;;;;;;;5.47;2.20;;;6.00;99.90;;;;;;4977952;28;20958;-77
2022/12/27 04:57:23;;;;;;;13.40;4.93;;;6.00;99.90;;;;;;4997366;28;21007;-77
2022/12/27 05:02:34;;;;;;;6.63;2.40;;;5.90;99.90;;;;;;4977992;28;20466;-76
2022/12/27 05:05:01;;;;;;;8.03;2.00;;;5.90;99.90;;;;;;4996525;28;21004;-76
2022/12/27 05:15:41;;;;;;;9.70;2.50;;;6.00;99.90;;;;;;4977494;28;20973;-77
2022/12/27 05:18:08;;;;;;;7.37;2.27;;;6.00;99.90;;;;;;4977430;28;20461;-77
2022/12/27 05:20:35;;;;;;;10.90;2.80;;;6.10;99.90;;;;;;4977466;28;20816;-76
2022/12/27 05:25:46;;;;;;;5.30;1.97;;;6.10;99.90;;;;;;4976789;28;20465;-77
2022/12/27 05:28:14;;;;;;;3.60;2.70;;;6.00;99.90;;;;;;4976928;28;20457;-76
2022/12/27 05:30:43;;;;;;;7.67;2.77;;;6.10;99.90;;;;;;4977215;28;20496;-77
2022/12/27 05:33:10;;;;;;;9.87;2.30;;;6.10;99.90;;;;;;4977192;28;20976;-76
2022/12/27 05:35:38;;;;;;;9.00;2.67;;;6.10;99.90;;;;;;4976819;28;20993;-76
2022/12/27 05:38:05;;;;;;;9.33;2.73;;;6.10;99.90;;;;;;4977082;28;20484;-76
2022/12/27 05:40:32;;;;;;;10.67;3.70;;;6.10;99.90;;;;;;4977823;28;20446;-75
2022/12/27 05:43:00;;;;;;;5.43;2.90;;;6.00;99.90;;;;;;4977180;28;20461;-76
2022/12/27 05:45:29;;;;;;;4.23;2.27;;;6.00;99.90;;;;;;4977071;28;20474;-76
2022/12/27 05:47:58;;;;;;;8.53;2.37;;;6.00;99.90;;;;;;4977011;28;20450;-76
2022/12/27 05:50:25;;;;;;;8.33;2.50;;;5.90;99.90;;;;;;4976776;28;20461;-76
2022/12/27 05:52:52;;;;;;;7.60;2.97;;;5.90;99.90;;;;;;4976980;28;20460;-76
2022/12/27 05:55:19;;;;;;;6.97;2.40;;;5.90;99.90;;;;;;4988318;28;20853;-76
2022/12/27 05:57:45;;;;;;;9.23;2.37;;;5.90;99.90;;;;;;4992863;28;20460;-76
2022/12/27 06:00:13;;;;;;;11.97;2.80;;;5.90;99.90;;;;;;4995469;28;20833;-76
2022/12/27 06:02:41;;;;;;;6.23;2.20;;;5.90;99.90;;;;;;4995886;28;20834;-76
2022/12/27 06:05:11;;;;;;;5.20;2.20;;;5.90;99.90;;;;;;4982207;28;20485;-76
2022/12/27 06:07:39;;;;;;;13.87;2.30;;;5.80;99.90;;;;;;4977149;28;20473;-76
2022/12/27 06:10:07;;;;;;;10.67;2.57;;;5.90;99.90;;;;;;4976518;28;20489;-76
2022/12/27 06:12:34;;;;;;;6.97;2.37;;;6.00;99.90;;;;;;4988072;28;20557;-76
2022/12/27 06:15:01;;;;;;;7.33;2.40;;;6.00;99.90;;;;;;4996038;28;20488;-76
2022/12/27 06:17:28;;;;;;;7.87;2.30;;;5.90;99.90;;;;;;4995959;28;20439;-76
2022/12/27 06:19:56;;;;;;;7.40;2.47;;;5.90;99.90;;;;;;4995611;28;20953;-76
2022/12/27 06:22:23;;;;;;;5.67;2.70;;;5.90;99.90;;;;;;4995508;28;20963;-76
2022/12/27 06:24:49;;;;;;;7.73;2.50;;;5.90;99.90;;;;;;4991710;28;20987;-77
2022/12/27 06:27:16;;;;;;;11.13;2.43;;;5.90;99.90;;;;;;4989992;28;20945;-77
2022/12/27 06:29:43;;;;;;;6.17;2.17;;;5.90;99.90;;;;;;4995462;28;20460;-77
2022/12/27 06:32:09;;;;;;;6.67;2.13;;;5.90;99.90;;;;;;4983252;28;20473;-77
2022/12/27 06:34:36;;;;;;;6.03;2.50;;;5.90;99.90;;;;;;4977527;28;21004;-76
2022/12/27 06:37:04;;;;;;;7.53;2.47;;;5.90;99.90;;;;;;4995246;28;20459;-77
2022/12/27 06:39:31;;;;;;;6.43;2.97;;;5.90;99.90;;;;;;4977710;28;20462;-77
2022/12/27 06:41:58;;;;;;;5.77;2.17;;;5.80;99.90;;;;;;4981512;28;20448;-77
2022/12/27 06:44:25;;;;;;;7.80;2.40;;;5.90;99.90;;;;;;4996261;28;20481;-77
2022/12/27 06:46:52;;;;;;;7.43;2.30;;;5.80;99.90;;;;;;4995831;28;20463;-76
2022/12/27 06:49:19;;;;;;;9.93;2.30;;;5.80;99.90;;;;;;4995553;28;20959;-76
2022/12/27 06:51:47;;;;;;;11.20;3.00;;;5.80;99.90;;;;;;4995618;28;20484;-76
2022/12/27 06:54:15;;;;;;;8.77;2.30;;;5.70;99.90;;;;;;4996309;28;20481;-76
2022/12/27 06:56:42;;;;;;;8.90;2.93;;;5.80;99.90;;;;;;4995458;28;20462;-77
2022/12/27 06:59:09;;;;;;;7.80;3.23;;;5.80;99.90;;;;;;4995258;28;20467;-76
2022/12/27 07:01:35;;;;;;;9.53;2.57;;;5.70;99.90;;;;;;4983889;28;20939;-77
2022/12/27 07:04:02;;;;;;;7.23;3.53;;;5.70;99.90;;;;;;4992920;28;20800;-77
2022/12/27 07:06:31;;;;;;;9.27;3.20;;;5.60;99.90;;;;;;4991994;28;20457;-77
2022/12/27 07:08:59;;;;;;;6.47;2.37;;;5.70;99.90;;;;;;4976017;28;20827;-77
2022/12/27 07:11:28;;;;;;;4.40;1.90;;;5.70;99.90;;;;;;4975677;28;20496;-76
2022/12/27 07:13:57;;;;;;;16.60;2.57;;;5.70;99.90;;;;;;4975988;28;20454;-76
2022/12/27 07:16:25;;;;;;;7.63;2.97;;;5.70;99.90;;;;;;4981350;28;20948;-77
2022/12/27 07:18:52;;;;;;;5.93;2.30;;;5.80;99.90;;;;;;4995388;28;20500;-76
2022/12/27 07:21:21;;;;;;;10.60;2.27;;;5.80;99.90;;;;;;4995157;28;20940;-76
2022/12/27 07:23:48;;;;;;;3.70;2.43;;;5.80;99.90;;;;;;4995216;28;20460;-77
2022/12/27 07:26:17;;;;;;;13.07;2.70;;;5.90;99.90;;;;;;4996368;28;21000;-76
2022/12/27 07:28:45;;;;;;;5.33;2.70;;;5.90;99.90;;;;;;5004554;28;20456;-76
2022/12/27 07:31:14;;;;;;;6.70;2.37;;;5.90;99.90;;;;;;5003675;28;20484;-76
2022/12/27 07:33:41;;;;;;;8.10;2.60;;;5.90;99.90;;;;;;4997958;28;20470;-76
2022/12/27 07:36:10;;;;;;;6.80;2.50;;;5.90;99.90;;;;;;4997654;28;20479;-76
2022/12/27 07:38:36;;;;;;;13.00;2.93;;;5.80;99.90;;;;;;4995335;28;20461;-76
2022/12/27 07:41:04;;;;;;;9.20;2.00;;;5.80;99.90;;;;;;4995835;28;20455;-76
2022/12/27 07:43:31;;;;;;;6.53;2.17;;;5.80;99.90;;;;;;4995156;28;20456;-76
2022/12/27 07:46:04;;;;;;;5.37;2.30;;;5.70;99.90;;;;;;4995181;28;20479;-76
2022/12/27 07:48:31;;;;;;;6.40;2.27;;;5.70;99.90;;;;;;4994464;28;20936;-76
2022/12/27 07:50:57;;;;;;;9.97;2.33;;;5.70;99.90;;;;;;4989379;28;20486;-77
2022/12/27 07:53:24;;;;;;;8.70;2.27;;;5.70;99.90;;;;;;4992789;28;20489;-76
2022/12/27 07:55:52;;;;;;;11.13;1.87;;;5.70;99.90;;;;;;4994767;28;20472;-76
2022/12/27 07:58:19;;;;;;;12.17;2.27;;;5.70;99.90;;;;;;4994475;28;20504;-76
2022/12/27 08:00:47;;;;;;;7.87;2.63;;;5.70;99.90;;;;;;4994616;28;20442;-76
2022/12/27 08:03:15;;;;;;;7.10;1.93;;;5.70;99.90;;;;;;4995608;28;20453;-76
2022/12/27 08:05:46;;;;;;;7.37;2.10;;;5.80;99.90;;;;;;4994312;28;20984;-76
2022/12/27 08:08:16;;;;;;;7.70;2.60;;;5.80;99.90;;;;;;4994659;28;20444;-77
2022/12/27 08:10:42;;;;;;;8.17;2.40;;;5.80;99.90;;;;;;4993966;28;20996;-75
2022/12/27 08:13:09;;;;;;;7.57;2.07;;;5.90;99.90;;;;;;4994204;28;20874;-76
2022/12/27 08:15:36;;;;;;;5.40;2.73;;;5.90;99.90;;;;;;4993888;28;20858;-76
2022/12/27 08:18:03;;;;;;;10.50;2.17;;;6.00;99.90;;;;;;4994083;28;20463;-76
2022/12/27 08:20:33;;;;;;;7.40;2.60;;;6.00;99.90;;;;;;4994349;28;20453;-76
2022/12/27 08:22:59;;;;;;;6.80;2.30;;;6.00;99.90;;;;;;4993224;28;20465;-77
2022/12/27 08:25:27;;;;;;;8.00;2.53;;;6.10;99.90;;;;;;4993277;28;20589;-77
2022/12/27 08:28:01;;;;;;;5.03;1.77;;;6.10;99.90;;;;;;4975677;28;20461;-76
2022/12/27 08:30:28;;;;;;;10.63;1.70;;;6.10;99.90;;;;;;4994161;28;20508;-76
2022/12/27 08:32:55;;;;;;;4.53;2.33;;;6.00;99.90;;;;;;4993827;28;20989;-76
2022/12/27 08:35:21;;;;;;;3.40;2.00;;;6.00;99.90;;;;;;4986127;28;20491;-76
2022/12/27 08:37:49;;;;;;;5.40;2.33;;;6.10;99.90;;;;;;4993689;28;20464;-76
2022/12/27 08:40:16;;;;;;;7.23;2.80;;;6.10;99.90;;;;;;4993858;28;20453;-76
2022/12/27 08:42:43;;;;;;;4.67;1.80;;;6.10;99.90;;;;;;4994088;28;20459;-76
2022/12/27 08:45:10;;;;;;;8.30;2.40;;;6.20;99.90;;;;;;4992368;28;20558;-76
2022/12/27 08:47:37;;;;;;;5.03;2.20;;;6.20;99.90;;;;;;4986418;28;20461;-76
2022/12/27 08:50:06;;;;;;;10.83;3.03;;;6.30;99.90;;;;;;4992287;28;20460;-76
2022/12/27 08:52:33;;;;;;;6.60;2.53;;;6.30;99.90;;;;;;4989690;28;20570;-76
2022/12/27 08:55:02;;;;;;;6.90;1.93;;;6.40;99.90;;;;;;4993367;28;20887;-76
2022/12/27 08:57:28;;;;;;;7.97;2.17;;;6.40;99.90;;;;;;4994284;28;20444;-76
2022/12/27 08:59:55;;;;;;;7.83;2.47;;;6.40;99.90;;;;;;4993984;28;20451;-76
2022/12/27 09:02:22;;;;;;;8.20;2.53;;;6.40;99.90;;;;;;4992825;28;20463;-77
2022/12/27 09:04:48;;;;;;;8.43;2.90;;;6.40;99.90;;;;;;4983535;28;20973;-76
2022/12/27 09:07:15;;;;;;;7.60;1.90;;;6.50;99.90;;;;;;4993367;28;20458;-76
2022/12/27 09:09:42;;;;;;;6.00;1.97;;;6.50;99.90;;;;;;4997252;28;20805;-76
2022/12/27 09:12:12;;;;;;;9.33;2.30;;;6.60;99.90;;;;;;4996998;28;20487;-76
2022/12/27 09:14:39;;;;;;;10.60;2.90;;;6.60;99.90;;;;;;4996952;28;20844;-76
2022/12/27 09:17:08;;;;;;;5.53;2.17;;;6.60;99.90;;;;;;4997258;28;20816;-76
2022/12/27 09:19:41;;;;;;;3.33;2.40;;;6.60;99.90;;;;;;4997193;28;20468;-77
2022/12/27 09:22:07;;;;;;;6.90;2.13;;;6.60;99.90;;;;;;5002665;28;20449;-76
2022/12/27 09:24:41;;;;;;;4.60;2.80;;;6.60;99.90;;;;;;5008964;28;20854;-76
2022/12/27 09:27:08;;;;;;;5.77;2.70;;;6.60;99.90;;;;;;5000603;28;20428;-76
2022/12/27 09:29:36;;;;;;;3.87;2.23;;;6.70;99.90;;;;;;4998343;28;20801;-76
2022/12/27 09:32:03;;;;;;;9.20;2.07;;;6.70;99.90;;;;;;4996923;28;20489;-76
2022/12/27 09:34:29;;;;;;;10.93;2.63;;;6.80;99.90;;;;;;4996878;28;20482;-76
2022/12/27 09:36:56;;;;;;;11.13;2.67;;;6.80;99.90;;;;;;4996907;28;20453;-76
2022/12/27 09:39:23;;;;;;;7.63;2.20;;;6.90;99.90;;;;;;4989402;28;20466;-76
2022/12/27 09:41:55;;;;;;;6.53;2.63;;;6.90;99.90;;;;;;4976978;28;20907;-76
2022/12/27 09:44:34;;;;;;;8.40;2.23;;;7.00;99.90;;;;;;4977526;28;20500;-77
2022/12/27 09:47:10;;;;;;;10.37;2.40;;;7.00;99.90;;;;;;4977405;28;20512;-76
2022/12/27 09:49:39;;;;;;;11.67;3.20;;;7.10;99.90;;;;;;4977030;28;20938;-76
2022/12/27 09:52:13;;;;;;;9.43;2.13;;;7.10;99.90;;;;;;4977025;28;20489;-76
2022/12/27 09:54:52;;;;;;;7.50;2.50;;;7.20;99.90;;;;;;4977559;28;20977;-77
2022/12/27 09:57:23;;;;;;;4.97;2.50;;;7.30;99.90;;;;;;4977156;28;20438;-77
2022/12/27 09:59:56;;;;;;;8.37;2.60;;;7.30;99.90;;;;;;4977328;28;20454;-77
2022/12/27 10:02:27;;;;;;;13.00;2.77;;;7.40;99.90;;;;;;4977132;28;20954;-76
2022/12/27 10:04:55;;;;;;;8.33;2.80;;;7.50;99.90;;;;;;4977055;28;20479;-76
2022/12/27 10:07:29;;;;;;;8.13;2.33;;;7.50;99.90;;;;;;4976778;28;20514;-76
2022/12/27 10:10:02;;;;;;;6.17;2.17;;;7.60;99.90;;;;;;4976763;28;20439;-76
2022/12/27 10:12:57;;;;;;;6.30;2.20;;;7.70;99.90;;;;;;4975829;28;20478;-77
2022/12/27 10:15:28;;;;;;;9.97;2.80;;;7.70;99.90;;;;;;4976552;28;20466;-77
2022/12/27 10:18:08;;;;;;;7.00;2.50;;;7.80;99.90;;;;;;4978319;28;20453;-76
2022/12/27 10:20:51;;;;;;;8.27;2.73;;;7.80;99.90;;;;;;4995668;28;20437;-77
2022/12/27 10:23:22;;;;;;;5.77;2.20;;;7.80;99.90;;;;;;4996763;28;20593;-76
2022/12/27 10:25:56;;;;;;;6.40;2.37;;;7.80;99.90;;;;;;4995770;28;20481;-77
2022/12/27 10:28:27;;;;;;;8.20;2.67;;;7.90;99.90;;;;;;4995539;28;20454;-76
2022/12/27 10:30:55;;;;;;;11.70;3.10;;;7.90;99.90;;;;;;4995848;28;20469;-77
2022/12/27 10:33:27;;;;;;;7.87;3.03;;;8.00;99.90;;;;;;4995605;28;20471;-77
2022/12/27 10:35:54;;;;;;;4.27;2.40;;;8.00;99.90;;;;;;4995671;28;20478;-77
2022/12/27 10:38:21;;;;;;;7.33;2.57;;;8.10;99.90;;;;;;4986180;28;20463;-77
2022/12/27 10:40:56;;;;;;;4.57;2.73;;;8.20;99.90;;;;;;4976090;28;20445;-77
2022/12/27 10:43:26;;;;;;;7.60;2.73;;;8.30;99.90;;;;;;4985014;28;20462;-77
2022/12/27 10:45:53;;;;;;;7.10;2.33;;;8.40;99.90;;;;;;4975888;28;20855;-77
2022/12/27 10:48:24;;;;;;;6.93;2.10;;;8.50;99.90;;;;;;4978182;28;20547;-77
2022/12/27 10:50:54;;;;;;;7.57;3.00;;;8.60;99.90;;;;;;4976801;28;20467;-77
2022/12/27 10:53:34;;;;;;;4.37;2.10;;;8.60;99.90;;;;;;4976106;28;20876;-77
2022/12/27 10:56:14;;;;;;;11.77;2.53;;;8.60;99.60;;;;;;4977546;28;20479;-77
2022/12/27 10:58:44;;;;;;;12.20;2.33;;;8.70;99.60;;;;;;4977177;28;20445;-77
2022/12/27 11:01:21;;;;;;;7.70;2.73;;;8.90;99.20;;;;;;4978902;28;20817;-77
2022/12/27 11:03:50;;;;;;;4.00;2.20;;;8.90;98.60;;;;;;4978370;28;20445;-77
2022/12/27 11:06:20;;;;;;;8.23;1.80;;;8.90;98.10;;;;;;4977401;28;20459;-76
2022/12/27 11:08:51;;;;;;;9.00;2.53;;;8.90;98.20;;;;;;4977138;28;20461;-77
2022/12/27 11:11:21;;;;;;;10.53;2.50;;;8.80;98.30;;;;;;4976563;28;20479;-77
2022/12/27 11:13:48;;;;;;;8.80;2.33;;;8.70;98.20;;;;;;4977080;28;20448;-77
2022/12/27 11:16:28;;;;;;;5.60;2.20;;;8.70;98.60;;;;;;4978171;28;20545;-77
2022/12/27 11:18:59;;;;;;;7.70;1.67;;;8.60;98.80;;;;;;4984976;28;20950;-77
2022/12/27 11:21:27;;;;;;;7.93;2.60;;;8.60;99.00;;;;;;4995367;28;20439;-76
2022/12/27 11:23:56;;;;;;;6.33;2.37;;;8.60;99.00;;;;;;4995328;28;20947;-77
2022/12/27 11:26:26;;;;;;;8.07;1.90;;;8.60;99.20;;;;;;4984712;28;20456;-77
2022/12/27 11:28:55;;;;;;;7.70;2.83;;;8.80;99.20;;;;;;4989550;28;20471;-77
2022/12/27 11:31:32;;;;;;;7.43;1.87;;;8.90;98.80;;;;;;4994636;28;20492;-77
2022/12/27 11:34:04;;;;;;;5.30;1.63;;;9.10;98.60;;;;;;4992324;28;20962;-77
2022/12/27 11:36:34;;;;;;;8.80;3.17;;;9.10;98.20;;;;;;4994890;28;20465;-78
2022/12/27 11:39:01;;;;;;;5.67;1.97;;;9.20;97.80;;;;;;4991828;28;20451;-77
2022/12/27 11:41:42;;;;;;;7.90;2.10;;;9.30;97.80;;;;;;4989970;28;20994;-76
2022/12/27 11:44:15;;;;;;;4.10;1.73;;;9.30;97.40;;;;;;4992759;28;20488;-77
2022/12/27 11:46:46;;;;;;;3.87;1.60;;;9.20;97.40;;;;;;4993621;28;20531;-77
2022/12/27 11:49:21;;;;;;;4.50;2.20;;;9.20;97.80;;;;;;4992778;28;20482;-77
2022/12/27 11:52:23;;;;;;;2.53;1.93;;;9.20;97.50;;;;;;4993745;28;20494;-77
2022/12/27 11:55:21;;;;;;;4.70;2.20;;;9.10;97.60;;;;;;4974944;28;20874;-77
2022/12/27 11:58:17;;;;;;;6.63;2.10;;;9.20;97.90;;;;;;4975090;28;20461;-77
2022/12/27 12:00:57;;;;;;;6.40;1.73;;;9.30;97.80;;;;;;4978606;28;20469;-77
2022/12/27 12:03:54;;;;;;;5.97;2.13;;;9.50;97.60;;;;;;4994953;28;20784;-77
2022/12/27 12:06:31;;;;;;;5.37;2.50;;;9.50;97.30;;;;;;4994242;28;20481;-77
2022/12/27 12:09:18;;;;;;;5.07;2.10;;;9.60;97.20;;;;;;4994214;28;20455;-77
2022/12/27 12:11:59;;;;;;;4.03;2.53;;;9.50;96.60;;;;;;4993742;28;21065;-76
2022/12/27 12:14:50;;;;;;;3.40;2.00;;;9.40;96.90;;;;;;4993814;28;20879;-78
2022/12/27 12:17:34;;;;;;;4.60;2.23;;;9.50;97.00;;;;;;4994097;28;20459;-77
2022/12/27 12:20:38;;;;;;;3.40;1.97;;;9.50;97.20;;;;;;4994219;28;20460;-77
2022/12/27 12:23:12;;;;;;;6.00;2.03;;;9.50;97.10;;;;;;4990259;28;20466;-76
2022/12/27 12:26:09;;;;;;;9.50;2.20;;;9.50;97.10;;;;;;4993990;28;20501;-77
2022/12/27 12:29:10;;;;;;;9.73;2.20;;;9.40;97.20;;;;;;4994039;28;20437;-78
2022/12/27 12:31:59;;;;;;;9.30;2.63;;;9.40;97.50;;;;;;4993926;28;20455;-77
2022/12/27 12:34:45;;;;;;;8.13;2.63;;;9.30;97.40;;;;;;4994055;28;20482;-78
2022/12/27 12:37:24;;;;;;;6.57;2.43;;;9.40;97.60;;;;;;4997694;28;20432;-78
2022/12/27 12:40:09;;;;;;;5.13;2.20;;;9.50;97.80;;;;;;4998025;28;20460;-77
2022/12/27 12:42:43;;;;;;;5.80;2.10;;;9.60;97.90;;;;;;4997803;28;20443;-77
2022/12/27 12:45:31;;;;;;;10.20;2.60;;;9.60;97.50;;;;;;4997676;28;20486;-76
2022/12/27 12:48:27;;;;;;;7.13;2.37;;;9.70;97.50;;;;;;4997520;28;20920;-76
2022/12/27 12:51:14;;;;;;;2.50;2.10;;;9.80;97.10;;;;;;4994105;28;20479;-76
2022/12/27 12:53:58;;;;;;;4.60;2.17;;;9.80;97.10;;;;;;4997559;28;20479;-76
2022/12/27 12:56:48;;;;;;;10.37;2.40;;;9.80;96.80;;;;;;4998134;28;20810;-76
2022/12/27 12:59:40;;;;;;;4.90;2.00;;;9.80;96.70;;;;;;4997254;28;20554;-77
2022/12/27 13:02:33;;;;;;;7.43;2.37;;;9.80;96.50;;;;;;4997428;28;20428;-77
2022/12/27 13:05:11;;;;;;;5.57;1.90;;;9.80;96.40;;;;;;4997027;28;21034;-77
2022/12/27 13:07:52;;;;;;;4.00;2.40;;;9.70;96.40;;;;;;4994541;28;20488;-77
2022/12/27 13:10:47;;;;;;;5.50;2.00;;;9.70;96.70;;;;;;4993151;28;20463;-76
2022/12/27 13:13:25;;;;;;;4.70;2.17;;;9.60;96.80;;;;;;4973873;28;20499;-77
2022/12/27 13:16:03;;;;;;;5.47;2.40;;;9.60;97.10;;;;;;4994943;28;20493;-77
2022/12/27 13:18:42;;;;;;;8.13;2.23;;;9.60;97.30;;;;;;4994853;28;20474;-77
2022/12/27 13:21:19;;;;;;;6.47;2.20;;;9.60;97.20;;;;;;4977608;28;20441;-77
2022/12/27 13:23:56;;;;;;;8.60;2.63;;;9.60;97.30;;;;;;4977592;28;20440;-76
2022/12/27 13:26:34;;;;;;;10.30;3.57;;;9.60;97.60;;;;;;4977464;28;20532;-76
2022/12/27 13:29:20;;;;;;;8.03;3.47;;;9.70;97.80;;;;;;4977158;28;20813;-77
2022/12/27 13:31:57;;;;;;;7.63;2.40;;;9.70;97.40;;;;;;4977298;28;20442;-76
2022/12/27 13:34:37;;;;;;;7.87;3.20;;;9.70;96.90;;;;;;4977166;28;20483;-77
2022/12/27 13:37:14;;;;;;;5.90;2.80;;;9.70;96.70;;;;;;4977309;28;20438;-76
2022/12/27 13:40:20;;;;;;;5.47;2.63;;;9.70;96.40;;;;;;4977226;28;20817;-76
2022/12/27 13:43:15;;;;;;;5.13;2.57;;;9.70;96.70;;;;;;4967356;28;20460;-76
2022/12/27 13:45:51;;;;;;;10.40;3.00;;;9.70;96.70;;;;;;4977362;28;20477;-76
2022/12/27 13:48:40;;;;;;;5.40;2.13;;;9.80;96.30;;;;;;4978151;28;20445;-76
2022/12/27 13:51:22;;;;;;;4.87;2.60;;;9.80;95.90;;;;;;4993597;28;20892;-77
2022/12/27 13:54:21;;;;;;;9.50;2.93;;;9.80;95.70;;;;;;5002537;28;20972;-77
2022/12/27 13:56:54;;;;;;;10.37;2.27;;;9.90;95.60;;;;;;5003497;28;20475;-76
2022/12/27 13:59:45;;;;;;;8.13;2.40;;;9.90;95.60;;;;;;5011667;28;20426;-76
2022/12/27 14:02:38;;;;;;;10.40;2.30;;;10.00;94.50;;;;;;5011681;28;20435;-76
2022/12/27 14:05:35;;;;;;;4.57;2.40;;;10.00;94.60;;;;;;5006754;28;20479;-76
2022/12/27 14:08:16;;;;;;;7.93;2.90;;;10.00;94.30;;;;;;5020919;28;20496;-77
2022/12/27 14:10:46;;;;;;;10.90;2.87;;;10.00;94.20;;;;;;5021253;28;20432;-78
2022/12/27 14:13:21;;;;;;;14.93;3.60;;;10.00;94.20;;;;;;5021437;28;20511;-76
2022/12/27 14:16:19;;;;;;;7.40;2.80;;;10.00;94.30;;;;;;5021105;28;20534;-77
2022/12/27 14:19:09;;;;;;;6.70;2.87;;;10.00;94.40;;;;;;5016185;28;20432;-76
2022/12/27 14:22:00;;;;;;;5.37;2.63;;;10.00;94.10;;;;;;5007319;28;20446;-77
2022/12/27 14:25:00;;;;;;;6.37;3.00;;;9.90;95.00;;;;;;5005436;28;20482;-76
2022/12/27 14:28:02;;;;;;;8.57;2.53;;;9.90;95.10;;;;;;5005072;28;20796;-76
2022/12/27 14:31:08;;;;;;;11.43;2.13;;;9.90;95.20;;;;;;5004944;28;20451;-76
2022/12/27 14:34:09;;;;;;;6.83;2.57;;;9.90;95.00;;;;;;4992532;28;20495;-76
2022/12/27 14:37:00;;;;;;;15.83;2.83;;;10.00;94.40;;;;;;5003652;28;20452;-76
2022/12/27 14:39:56;;;;;;;8.67;3.23;;;9.90;94.90;;;;;;5003602;28;20438;-76
2022/12/27 14:43:06;;;;;;;10.53;2.57;;;9.90;94.90;;;;;;5002619;28;20451;-76
2022/12/27 14:46:05;;;;;;;7.90;3.20;;;9.80;95.00;;;;;;4985118;28;20485;-77
2022/12/27 14:49:08;;;;;;;8.13;2.63;;;9.80;95.10;;;;;;4980901;28;20456;-76
2022/12/27 14:52:18;;;;;;;5.80;2.07;;;9.80;95.10;;;;;;4980458;28;20460;-77
2022/12/27 14:55:23;;;;;;;7.80;2.40;;;9.70;95.00;;;;;;4980073;28;20479;-76
2022/12/27 14:58:03;;;;;;;8.10;2.10;;;9.60;94.90;;;;;;4980142;28;20449;-76
2022/12/27 15:00:53;;;;;;;8.73;1.60;;;9.60;95.00;;;;;;4979487;28;20810;-77
2022/12/27 15:03:30;;;;;;;3.90;1.67;;;9.60;95.10;;;;;;4979178;28;20550;-76
2022/12/27 15:06:06;;;;;;;7.10;2.80;;;9.60;95.20;;;;;;4978887;28;20473;-76
2022/12/27 15:08:47;;;;;;;10.33;4.33;;;9.40;95.00;;;;;;4979964;28;20429;-76